createdAt,value
2022-11-29T00:00:37.521Z,3.08
2022-11-29T00:03:40.021Z,2.98
2022-11-29T00:06:42.205Z,2.77
2022-11-29T00:09:44.684Z,2.80
2022-11-29T00:12:48.271Z,2.81
2022-11-29T00:15:50.778Z,2.86
2022-11-29T00:18:53.019Z,2.77
2022-11-29T00:21:55.692Z,2.72
2022-11-29T00:24:57.870Z,2.71
2022-11-29T00:28:00.470Z,2.86
2022-11-29T00:31:16.965Z,2.91
2022-11-29T00:34:19.674Z,3.06
2022-11-29T00:37:21.891Z,3.00
2022-11-29T00:40:24.587Z,2.99
2022-11-29T00:43:26.779Z,3.02
2022-11-29T00:46:29.343Z,2.89
2022-11-29T00:49:31.567Z,3.06
2022-11-29T00:52:34.059Z,2.86
2022-11-29T00:55:36.427Z,2.81
2022-11-29T00:58:38.992Z,2.78
2022-11-29T01:01:41.327Z,2.61
2022-11-29T01:04:44.178Z,2.59
2022-11-29T01:07:46.684Z,2.71
2022-11-29T01:10:49.279Z,2.80
2022-11-29T01:13:57.123Z,2.93
2022-11-29T01:16:59.763Z,2.74
2022-11-29T01:20:02.984Z,2.65
2022-11-29T01:23:05.685Z,2.65
2022-11-29T01:26:15.082Z,2.68
2022-11-29T01:29:17.604Z,2.70
2022-11-29T01:32:19.803Z,2.91
2022-11-29T01:35:22.378Z,2.98
2022-11-29T01:38:24.640Z,2.84
2022-11-29T01:41:31.068Z,2.79
2022-11-29T01:44:33.133Z,2.86
2022-11-29T01:47:41.426Z,3.04
2022-11-29T01:50:43.892Z,2.89
2022-11-29T01:53:46.565Z,2.93
2022-11-29T01:56:51.902Z,2.94
2022-11-29T02:00:00.662Z,2.88
2022-11-29T02:03:10.970Z,2.82
2022-11-29T02:06:14.664Z,2.88
2022-11-29T02:09:19.850Z,3.05
2022-11-29T02:12:40.803Z,2.98
2022-11-29T02:15:50.150Z,2.92
2022-11-29T02:19:32.752Z,2.91
2022-11-29T02:22:44.073Z,2.85
2022-11-29T02:25:58.819Z,2.78
2022-11-29T02:30:05.010Z,2.94
2022-11-29T02:33:28.474Z,2.96
2022-11-29T02:36:33.258Z,2.77
2022-11-29T02:40:00.794Z,2.68
2022-11-29T02:43:30.616Z,2.69
2022-11-29T02:46:57.328Z,2.72
2022-11-29T02:50:05.399Z,2.65
2022-11-29T02:53:20.201Z,2.43
2022-11-29T02:56:48.507Z,2.34
2022-11-29T03:00:01.192Z,2.36
2022-11-29T03:03:09.465Z,2.36
2022-11-29T03:06:17.921Z,2.43
2022-11-29T03:09:40.358Z,2.42
2022-11-29T03:12:49.439Z,2.40
2022-11-29T03:15:59.112Z,2.37
2022-11-29T03:19:19.871Z,2.29
2022-11-29T03:23:07.553Z,2.42
2022-11-29T03:26:38.131Z,2.32
2022-11-29T03:29:48.140Z,2.33
2022-11-29T03:32:56.708Z,2.26
2022-11-29T03:36:18.668Z,2.24
2022-11-29T03:39:30.533Z,2.48
2022-11-29T03:42:44.727Z,2.39
2022-11-29T03:46:11.341Z,2.60
2022-11-29T03:49:23.328Z,2.32
2022-11-29T03:52:38.632Z,2.50
2022-11-29T03:55:53.238Z,2.52
2022-11-29T03:59:04.850Z,2.48
2022-11-29T04:02:37.958Z,2.30
2022-11-29T04:05:59.561Z,2.44
2022-11-29T04:09:26.086Z,2.38
2022-11-29T04:12:47.363Z,2.24
2022-11-29T04:16:40.998Z,2.06
2022-11-29T04:20:09.842Z,2.00
2022-11-29T04:23:30.135Z,1.96
2022-11-29T04:26:51.431Z,2.03
2022-11-29T04:30:17.893Z,2.11
2022-11-29T04:33:52.821Z,2.01
2022-11-29T04:37:23.364Z,2.06
2022-11-29T04:40:50.202Z,2.27
2022-11-29T04:43:58.139Z,2.44
2022-11-29T04:47:07.716Z,2.48
2022-11-29T04:50:26.870Z,2.15
2022-11-29T04:53:54.040Z,2.01
2022-11-29T04:57:19.459Z,2.03
2022-11-29T05:00:39.371Z,2.15
2022-11-29T05:03:55.456Z,2.08
2022-11-29T05:06:59.914Z,2.14
2022-11-29T05:10:28.243Z,2.16
2022-11-29T05:13:59.210Z,2.15
2022-11-29T05:17:33.235Z,2.14
2022-11-29T05:20:48.979Z,2.07
2022-11-29T05:24:06.517Z,2.24
2022-11-29T05:27:23.185Z,2.20
2022-11-29T05:30:40.427Z,2.05
2022-11-29T05:33:51.224Z,1.98
2022-11-29T05:37:11.399Z,1.85
2022-11-29T05:40:32.725Z,1.82
2022-11-29T05:43:38.019Z,1.86
2022-11-29T05:46:58.605Z,1.86
2022-11-29T05:50:27.326Z,1.79
2022-11-29T05:53:48.666Z,1.57
2022-11-29T05:57:06.957Z,1.54
2022-11-29T06:00:12.879Z,1.65
2022-11-29T06:03:35.076Z,1.58
2022-11-29T06:06:45.036Z,1.61
2022-11-29T06:10:11.890Z,1.69
2022-11-29T06:13:54.547Z,1.83
2022-11-29T06:17:38.788Z,1.95
2022-11-29T06:21:17.024Z,1.71
2022-11-29T06:24:45.418Z,1.80
2022-11-29T06:28:07.117Z,1.83
2022-11-29T06:31:32.059Z,1.96
2022-11-29T06:34:50.827Z,2.09
2022-11-29T06:37:58.470Z,1.96
2022-11-29T06:41:02.321Z,2.09
2022-11-29T06:44:05.693Z,2.12
2022-11-29T06:47:23.678Z,2.26
2022-11-29T06:50:38.427Z,2.32
2022-11-29T06:54:03.272Z,2.45
2022-11-29T06:57:17.561Z,2.42
2022-11-29T07:00:23.741Z,2.32
2022-11-29T07:03:48.026Z,2.05
2022-11-29T07:06:51.407Z,2.12
2022-11-29T07:10:00.350Z,2.35
2022-11-29T07:13:06.126Z,2.41
2022-11-29T07:16:28.336Z,2.34
2022-11-29T07:19:52.386Z,2.35
2022-11-29T07:23:29.439Z,2.52
2022-11-29T07:26:48.140Z,2.36
2022-11-29T07:30:01.885Z,2.30
2022-11-29T07:33:34.235Z,2.53
2022-11-29T07:36:59.050Z,2.58
2022-11-29T07:40:19.644Z,2.66
2022-11-29T07:43:43.454Z,2.74
2022-11-29T07:46:45.708Z,2.54
2022-11-29T07:49:48.186Z,2.54
2022-11-29T07:52:50.489Z,2.74
2022-11-29T07:55:53.091Z,2.95
2022-11-29T07:58:55.249Z,3.07
2022-11-29T08:01:58.793Z,3.05
2022-11-29T08:05:04.739Z,2.75
2022-11-29T08:08:08.681Z,2.87
2022-11-29T08:11:12.406Z,2.62
2022-11-29T08:14:14.822Z,2.66
2022-11-29T08:17:18.584Z,2.92
2022-11-29T08:20:20.726Z,3.01
2022-11-29T08:23:23.241Z,2.96
2022-11-29T08:26:31.232Z,3.00
2022-11-29T08:29:34.257Z,2.84
2022-11-29T08:32:36.386Z,2.94
2022-11-29T08:35:39.984Z,2.87
2022-11-29T08:38:42.433Z,3.11
2022-11-29T08:41:45.132Z,2.71
2022-11-29T08:44:48.121Z,2.76
2022-11-29T08:47:50.831Z,2.65
2022-11-29T08:50:55.344Z,2.68
2022-11-29T08:53:57.740Z,2.69
2022-11-29T08:57:37.885Z,2.66
2022-11-29T09:00:25.043Z,2.93
2022-11-29T09:03:46.044Z,3.06
2022-11-29T09:06:49.692Z,3.09
2022-11-29T09:09:51.938Z,2.79
2022-11-29T09:12:55.052Z,2.97
2022-11-29T09:15:57.583Z,2.83
2022-11-29T09:19:00.214Z,2.65
2022-11-29T09:22:03.618Z,2.90
2022-11-29T09:25:06.715Z,2.90
2022-11-29T09:28:09.105Z,3.08
2022-11-29T09:31:14.561Z,3.52
2022-11-29T09:34:18.814Z,3.82
2022-11-29T09:37:21.395Z,4.06
2022-11-29T09:40:32.025Z,3.90
2022-11-29T09:43:55.027Z,3.86
2022-11-29T09:46:58.932Z,4.06
2022-11-29T09:50:21.274Z,4.44
2022-11-29T09:54:00.871Z,4.36
2022-11-29T09:57:10.622Z,4.55
2022-11-29T10:00:20.550Z,4.40
2022-11-29T10:03:46.479Z,4.27
2022-11-29T10:06:58.444Z,3.93
2022-11-29T10:10:08.409Z,4.05
2022-11-29T10:13:32.296Z,3.84
2022-11-29T10:16:58.693Z,3.92
2022-11-29T10:20:10.216Z,3.99
2022-11-29T10:23:31.052Z,3.98
2022-11-29T10:26:35.330Z,3.80
2022-11-29T10:29:38.441Z,3.64
2022-11-29T10:32:42.446Z,3.65
2022-11-29T10:35:47.627Z,3.50
2022-11-29T10:38:51.399Z,3.54
2022-11-29T10:42:02.517Z,3.46
2022-11-29T10:45:31.017Z,3.47
2022-11-29T10:48:34.200Z,3.23
2022-11-29T10:51:36.671Z,3.06
2022-11-29T10:54:42.384Z,3.05
2022-11-29T10:58:13.148Z,3.43
2022-11-29T11:01:16.836Z,3.60
2022-11-29T11:04:35.182Z,3.56
2022-11-29T11:07:38.954Z,3.76
2022-11-29T11:10:41.450Z,3.90
2022-11-29T11:13:58.100Z,3.80
2022-11-29T11:17:22.511Z,3.80
2022-11-29T11:20:29.108Z,3.41
2022-11-29T11:23:36.369Z,3.52
2022-11-29T11:26:45.353Z,3.43
2022-11-29T11:29:47.532Z,3.57
2022-11-29T11:33:19.408Z,3.80
2022-11-29T11:36:27.390Z,3.65
2022-11-29T11:39:32.449Z,3.73
2022-11-29T11:42:40.342Z,3.80
2022-11-29T11:45:52.039Z,3.55
2022-11-29T11:48:54.356Z,3.75
2022-11-29T11:52:01.221Z,3.64
2022-11-29T11:55:25.305Z,3.76
2022-11-29T11:58:44.579Z,3.73
2022-11-29T12:01:47.192Z,3.86
2022-11-29T12:04:49.701Z,3.91
2022-11-29T12:08:07.918Z,4.03
2022-11-29T12:11:14.681Z,4.05
2022-11-29T12:14:32.584Z,4.07
2022-11-29T12:17:38.431Z,4.28
2022-11-29T12:21:07.184Z,4.20
2022-11-29T12:24:26.265Z,3.98
2022-11-29T12:27:29.216Z,3.97
2022-11-29T12:30:32.050Z,4.12
2022-11-29T12:34:07.707Z,4.34
2022-11-29T12:37:16.679Z,4.32
2022-11-29T12:40:36.768Z,4.29
2022-11-29T12:44:11.279Z,4.33
2022-11-29T12:47:51.538Z,4.37
2022-11-29T12:51:33.513Z,4.44
2022-11-29T12:54:35.568Z,4.45
2022-11-29T12:57:45.988Z,4.50
2022-11-29T13:01:26.305Z,4.27
2022-11-29T13:04:56.514Z,4.18
2022-11-29T13:08:46.680Z,4.43
2022-11-29T13:11:58.365Z,4.40
2022-11-29T13:15:23.981Z,4.41
2022-11-29T13:18:45.146Z,4.27
2022-11-29T13:21:59.518Z,4.24
2022-11-29T13:25:13.143Z,4.37
2022-11-29T13:28:24.940Z,4.46
2022-11-29T13:31:27.933Z,4.27
2022-11-29T13:34:41.579Z,4.24
2022-11-29T13:38:03.289Z,4.27
2022-11-29T13:41:11.232Z,4.13
2022-11-29T13:44:43.582Z,4.11
2022-11-29T13:47:49.929Z,4.28
2022-11-29T13:50:52.505Z,4.22
2022-11-29T13:53:56.703Z,4.32
2022-11-29T13:57:05.337Z,4.28
2022-11-29T14:00:27.327Z,4.10
2022-11-29T14:03:38.694Z,4.00
2022-11-29T14:06:41.299Z,3.96
2022-11-29T14:09:51.332Z,4.06
2022-11-29T14:12:56.774Z,4.03
2022-11-29T14:16:03.447Z,4.18
2022-11-29T14:19:08.411Z,3.96
2022-11-29T14:22:20.807Z,4.14
2022-11-29T14:25:50.692Z,4.15
2022-11-29T14:28:47.707Z,4.24
2022-11-29T14:31:53.324Z,4.16
2022-11-29T14:35:04.711Z,4.19
2022-11-29T14:38:35.010Z,4.21
2022-11-29T14:42:01.899Z,4.41
2022-11-29T14:45:22.763Z,4.38
2022-11-29T14:48:31.547Z,4.29
2022-11-29T14:51:34.420Z,4.41
2022-11-29T14:54:57.039Z,4.32
2022-11-29T14:58:03.723Z,4.18
2022-11-29T15:01:10.694Z,4.16
2022-11-29T15:04:13.553Z,4.18
2022-11-29T15:07:19.394Z,4.23
2022-11-29T15:10:27.084Z,4.16
2022-11-29T15:13:32.891Z,4.13
2022-11-29T15:16:52.223Z,4.12
2022-11-29T15:20:06.662Z,4.03
2022-11-29T15:23:17.754Z,4.17
2022-11-29T15:26:21.130Z,4.18
2022-11-29T15:29:23.419Z,4.21
2022-11-29T15:32:30.854Z,4.06
2022-11-29T15:35:34.485Z,3.98
2022-11-29T15:38:45.755Z,4.09
2022-11-29T15:41:47.909Z,4.22
2022-11-29T15:44:52.884Z,4.13
2022-11-29T15:47:55.433Z,4.10
2022-11-29T15:51:03.690Z,3.89
2022-11-29T15:54:16.608Z,3.88
2022-11-29T15:57:26.468Z,3.51
2022-11-29T16:00:31.407Z,3.51
2022-11-29T16:03:37.796Z,3.58
2022-11-29T16:06:42.179Z,3.40
2022-11-29T16:09:51.712Z,3.32
2022-11-29T16:12:59.166Z,3.44
2022-11-29T16:16:12.695Z,3.53
2022-11-29T16:19:23.253Z,3.76
2022-11-29T16:22:25.599Z,3.90
2022-11-29T16:25:28.052Z,3.96
2022-11-29T16:28:37.152Z,3.98
2022-11-29T16:31:39.450Z,3.83
2022-11-29T16:34:44.274Z,3.77
2022-11-29T16:37:47.307Z,3.57
2022-11-29T16:41:21.516Z,3.47
2022-11-29T16:44:47.013Z,3.32
2022-11-29T16:47:57.834Z,3.27
2022-11-29T16:51:16.032Z,3.46
2022-11-29T16:54:24.391Z,3.54
2022-11-29T16:57:28.759Z,3.58
2022-11-29T17:00:33.391Z,3.54
2022-11-29T17:03:35.717Z,3.53
2022-11-29T17:06:38.185Z,3.51
2022-11-29T17:09:40.333Z,3.62
2022-11-29T17:12:47.758Z,3.74
2022-11-29T17:15:50.408Z,3.63
2022-11-29T17:18:53.705Z,3.86
2022-11-29T17:21:55.919Z,3.76
2022-11-29T17:24:58.312Z,3.81
2022-11-29T17:28:01.094Z,3.76
2022-11-29T17:31:13.799Z,3.83
2022-11-29T17:34:16.700Z,3.98
2022-11-29T17:37:19.161Z,3.91
2022-11-29T17:40:21.251Z,4.05
2022-11-29T17:43:23.656Z,4.04
2022-11-29T17:46:31.781Z,4.09
2022-11-29T17:49:34.515Z,4.10
2022-11-29T17:52:36.988Z,4.08
2022-11-29T17:55:39.363Z,3.97
2022-11-29T17:58:41.877Z,3.85
2022-11-29T18:01:49.458Z,3.62
2022-11-29T18:04:52.174Z,3.62
2022-11-29T18:08:00.348Z,3.59
2022-11-29T18:11:08.085Z,3.73
2022-11-29T18:14:11.999Z,3.75
2022-11-29T18:17:14.408Z,3.98
2022-11-29T18:20:16.569Z,3.98
2022-11-29T18:23:19.033Z,3.92
2022-11-29T18:26:25.961Z,3.85
2022-11-29T18:29:31.514Z,3.88
2022-11-29T18:32:38.161Z,3.91
2022-11-29T18:35:40.564Z,3.87
2022-11-29T18:38:44.497Z,3.85
2022-11-29T18:41:49.304Z,4.05
2022-11-29T18:44:53.596Z,4.17
2022-11-29T18:47:59.846Z,4.26
2022-11-29T18:51:07.153Z,4.37
2022-11-29T18:54:10.193Z,4.25
2022-11-29T18:57:12.320Z,4.27
2022-11-29T19:00:15.379Z,4.35
2022-11-29T19:03:17.508Z,4.46
2022-11-29T19:06:22.434Z,4.31
2022-11-29T19:09:24.748Z,4.23
2022-11-29T19:12:27.124Z,4.09
2022-11-29T19:15:29.185Z,4.15
2022-11-29T19:18:31.764Z,4.01
2022-11-29T19:21:34.588Z,3.99
2022-11-29T19:24:36.996Z,3.97
2022-11-29T19:27:40.084Z,4.06
2022-11-29T19:30:42.893Z,3.89
2022-11-29T19:33:45.884Z,3.81
2022-11-29T19:36:48.259Z,3.90
2022-11-29T19:39:50.312Z,4.01
2022-11-29T19:42:52.645Z,3.85
2022-11-29T19:45:54.771Z,3.87
2022-11-29T19:48:58.530Z,3.98
2022-11-29T19:52:00.629Z,3.91
2022-11-29T19:55:03.149Z,3.97
2022-11-29T19:58:05.478Z,3.99
2022-11-29T20:01:13.666Z,3.86
2022-11-29T20:04:17.465Z,3.95
2022-11-29T20:07:20.699Z,4.00
2022-11-29T20:10:23.551Z,3.92
2022-11-29T20:13:25.744Z,4.10
2022-11-29T20:16:31.042Z,4.19
2022-11-29T20:19:33.205Z,4.22
2022-11-29T20:22:35.606Z,4.19
2022-11-29T20:25:37.841Z,4.05
2022-11-29T20:28:40.707Z,4.04
2022-11-29T20:31:49.420Z,4.01
2022-11-29T20:34:52.499Z,4.16
2022-11-29T20:38:36.170Z,4.12
2022-11-29T20:41:53.429Z,4.05
2022-11-29T20:44:58.103Z,4.21
2022-11-29T20:48:17.707Z,4.20
2022-11-29T20:51:24.494Z,4.22
2022-11-29T20:54:26.857Z,4.18
2022-11-29T20:57:28.938Z,3.90
2022-11-29T21:00:31.461Z,4.08
2022-11-29T21:03:33.936Z,4.09
2022-11-29T21:06:37.967Z,4.12
2022-11-29T21:09:40.098Z,4.06
2022-11-29T21:12:45.524Z,4.13
2022-11-29T21:15:48.523Z,4.18
2022-11-29T21:18:51.080Z,4.13
2022-11-29T21:22:14.245Z,4.15
2022-11-29T21:25:31.825Z,4.07
2022-11-29T21:28:50.505Z,4.12
2022-11-29T21:31:54.155Z,4.12
2022-11-29T21:34:56.327Z,4.20
2022-11-29T21:38:01.571Z,4.27
2022-11-29T21:41:03.704Z,4.15
2022-11-29T21:44:07.789Z,4.15
2022-11-29T21:47:10.378Z,4.25
2022-11-29T21:50:13.722Z,4.30
2022-11-29T21:53:15.846Z,4.15
2022-11-29T21:56:18.264Z,4.25
2022-11-29T21:59:20.560Z,4.32
2022-11-29T22:02:23.227Z,4.44
2022-11-29T22:05:25.689Z,4.54
2022-11-29T22:08:27.826Z,4.44
2022-11-29T22:11:34.260Z,4.42
2022-11-29T22:14:36.634Z,4.45
2022-11-29T22:17:39.083Z,4.43
2022-11-29T22:20:41.157Z,4.40
2022-11-29T22:23:43.587Z,4.42
2022-11-29T22:26:46.395Z,4.31
2022-11-29T22:29:48.914Z,4.47
2022-11-29T22:32:51.102Z,4.45
2022-11-29T22:35:53.923Z,4.48
2022-11-29T22:38:55.981Z,4.48
2022-11-29T22:41:58.353Z,4.51
2022-11-29T22:45:02.103Z,4.47
2022-11-29T22:48:04.733Z,4.42
2022-11-29T22:51:06.849Z,4.50
2022-11-29T22:54:11.302Z,4.56
2022-11-29T22:57:13.415Z,4.45
2022-11-29T23:00:15.910Z,4.42
2022-11-29T23:03:18.038Z,4.31
2022-11-29T23:06:25.675Z,4.38
2022-11-29T23:09:29.841Z,4.40
2022-11-29T23:12:32.353Z,4.45
2022-11-29T23:15:34.512Z,4.40
2022-11-29T23:18:38.455Z,4.46
2022-11-29T23:21:41.331Z,4.61
2022-11-29T23:24:43.871Z,4.52
2022-11-29T23:27:46.238Z,4.46
2022-11-29T23:30:48.657Z,4.55
2022-11-29T23:33:51.188Z,4.58
2022-11-29T23:36:53.603Z,4.60
2022-11-29T23:39:55.676Z,4.50
2022-11-29T23:42:58.025Z,4.46
2022-11-29T23:46:04.845Z,4.54
2022-11-29T23:49:07.440Z,4.58
2022-11-29T23:52:09.523Z,4.46
2022-11-29T23:55:14.406Z,4.48
2022-11-29T23:58:16.523Z,4.48
